createdAt,value
2023-01-06T00:03:09.612Z,50.50
2023-01-06T00:08:11.356Z,50.28
2023-01-06T00:13:13.315Z,50.41
2023-01-06T00:18:15.233Z,50.62
2023-01-06T00:23:16.890Z,50.12
2023-01-06T00:28:18.825Z,50.42
2023-01-06T00:33:24.962Z,50.47
2023-01-06T00:38:27.017Z,50.44
2023-01-06T00:43:28.675Z,50.79
2023-01-06T00:48:30.355Z,50.64
2023-01-06T00:53:31.993Z,50.61
2023-01-06T00:58:34.019Z,50.19
2023-01-06T01:03:37.902Z,50.61
2023-01-06T01:08:39.558Z,50.03
2023-01-06T01:13:41.217Z,50.32
2023-01-06T01:18:42.876Z,49.91
2023-01-06T01:23:44.529Z,50.22
2023-01-06T01:28:46.259Z,50.55
2023-01-06T01:33:48.139Z,49.96
2023-01-06T01:38:49.949Z,50.08
2023-01-06T01:43:58.129Z,50.14
2023-01-06T01:49:11.199Z,50.41
2023-01-06T01:54:21.595Z,49.79
2023-01-06T01:59:27.327Z,50.12
2023-01-06T02:04:32.272Z,50.04
2023-01-06T02:09:41.868Z,50.23
2023-01-06T02:14:43.507Z,49.73
2023-01-06T02:20:25.349Z,50.15
2023-01-06T02:25:56.451Z,49.70
2023-01-06T02:31:36.252Z,49.64
2023-01-06T02:36:38.118Z,49.84
2023-01-06T02:41:48.329Z,49.96
2023-01-06T02:47:01.755Z,49.87
2023-01-06T02:52:20.987Z,49.80
2023-01-06T02:57:59.650Z,49.95
2023-01-06T03:03:09.756Z,49.77
2023-01-06T03:08:20.652Z,49.92
2023-01-06T03:13:33.621Z,49.89
2023-01-06T03:18:37.399Z,50.20
2023-01-06T03:23:41.419Z,49.53
2023-01-06T03:28:43.150Z,49.72
2023-01-06T03:34:07.698Z,49.59
2023-01-06T03:39:18.057Z,49.49
2023-01-06T03:44:48.829Z,49.73
2023-01-06T03:50:17.493Z,49.61
2023-01-06T03:55:24.129Z,49.32
2023-01-06T04:00:33.045Z,49.64
2023-01-06T04:05:34.761Z,49.72
2023-01-06T04:10:36.406Z,49.64
2023-01-06T04:15:38.078Z,49.96
2023-01-06T04:20:39.849Z,49.82
2023-01-06T04:25:43.527Z,49.57
2023-01-06T04:30:46.410Z,49.47
2023-01-06T04:35:48.065Z,49.27
2023-01-06T04:40:49.724Z,49.59
2023-01-06T04:45:51.632Z,49.54
2023-01-06T04:51:03.057Z,49.60
2023-01-06T04:56:06.701Z,49.82
2023-01-06T05:01:11.935Z,49.80
2023-01-06T05:06:14.319Z,49.63
2023-01-06T05:11:19.117Z,49.34
2023-01-06T05:16:23.164Z,49.45
2023-01-06T05:21:27.242Z,49.47
2023-01-06T05:26:29.182Z,49.58
2023-01-06T05:31:30.982Z,49.36
2023-01-06T05:36:32.703Z,49.52
2023-01-06T05:41:34.449Z,49.21
2023-01-06T05:46:36.308Z,49.51
2023-01-06T05:51:38.010Z,49.54
2023-01-06T05:56:39.819Z,49.20
2023-01-06T06:01:41.626Z,49.49
2023-01-06T06:06:43.379Z,49.54
2023-01-06T06:11:45.094Z,49.17
2023-01-06T06:16:46.833Z,49.39
2023-01-06T06:21:48.595Z,49.54
2023-01-06T06:26:50.259Z,49.28
2023-01-06T06:31:51.973Z,49.25
2023-01-06T06:36:54.303Z,49.35
2023-01-06T06:41:55.971Z,49.24
2023-01-06T06:46:58.498Z,49.34
2023-01-06T06:52:00.136Z,49.52
2023-01-06T06:57:01.811Z,49.06
2023-01-06T07:02:03.756Z,49.36
2023-01-06T07:07:05.493Z,49.05
2023-01-06T07:12:07.417Z,49.18
2023-01-06T07:22:24.696Z,49.28
2023-01-06T07:27:26.365Z,49.11
2023-01-06T07:32:28.050Z,49.22
2023-01-06T07:37:29.948Z,49.47
2023-01-06T07:42:31.898Z,49.36
2023-01-06T07:47:33.982Z,49.43
2023-01-06T07:52:36.086Z,49.26
2023-01-06T07:57:38.294Z,48.88
2023-01-06T08:02:40.385Z,48.88
2023-01-06T08:07:42.520Z,48.83
2023-01-06T08:12:44.628Z,48.85
2023-01-06T08:17:46.435Z,48.75
2023-01-06T08:22:48.618Z,48.75
2023-01-06T08:27:50.779Z,48.99
2023-01-06T08:32:52.612Z,48.96
2023-01-06T08:37:54.419Z,49.94
2023-01-06T08:42:56.360Z,49.73
2023-01-06T08:47:58.233Z,49.63
2023-01-06T08:53:00.252Z,49.78
2023-01-06T08:58:01.959Z,49.64
2023-01-06T09:03:03.971Z,49.30
2023-01-06T09:08:06.115Z,49.83
2023-01-06T09:13:07.911Z,49.27
2023-01-06T09:18:10.937Z,49.39
2023-01-06T09:23:13.187Z,49.28
2023-01-06T09:28:15.076Z,49.94
2023-01-06T09:33:17.679Z,49.31
2023-01-06T09:38:20.245Z,49.50
2023-01-06T09:43:41.056Z,49.35
2023-01-06T09:48:58.907Z,49.62
2023-01-06T09:54:13.697Z,49.81
2023-01-06T09:59:26.359Z,49.20
2023-01-06T10:04:30.917Z,49.50
2023-01-06T10:09:45.287Z,49.96
2023-01-06T10:15:22.416Z,49.52
2023-01-06T10:20:30.926Z,49.46
2023-01-06T10:26:00.114Z,48.96
2023-01-06T10:31:06.515Z,49.18
2023-01-06T10:36:14.466Z,49.24
2023-01-06T10:41:39.705Z,49.03
2023-01-06T10:46:45.468Z,48.98
2023-01-06T10:51:53.106Z,49.17
2023-01-06T10:57:04.465Z,49.27
2023-01-06T11:02:06.528Z,49.17
2023-01-06T11:07:14.997Z,50.03
2023-01-06T11:12:23.432Z,50.34
2023-01-06T11:17:26.003Z,50.17
2023-01-06T11:22:37.027Z,50.36
2023-01-06T11:27:38.919Z,50.77
2023-01-06T11:32:42.903Z,50.38
2023-01-06T11:37:45.709Z,50.34
2023-01-06T11:42:53.938Z,50.29
2023-01-06T11:47:55.920Z,51.02
2023-01-06T11:53:14.396Z,50.71
2023-01-06T11:58:21.709Z,50.92
2023-01-06T12:03:30.149Z,50.71
2023-01-06T12:08:40.948Z,50.44
2023-01-06T12:13:44.959Z,50.16
2023-01-06T12:18:53.150Z,50.25
2023-01-06T12:23:57.056Z,50.48
2023-01-06T12:29:00.152Z,50.56
2023-01-06T12:34:16.573Z,50.64
2023-01-06T12:39:46.119Z,50.93
2023-01-06T12:44:57.064Z,50.98
2023-01-06T12:50:05.944Z,50.41
2023-01-06T12:55:15.401Z,50.38
2023-01-06T13:00:40.638Z,50.30
2023-01-06T13:05:55.136Z,50.25
2023-01-06T13:11:05.220Z,50.22
2023-01-06T13:16:36.252Z,49.99
2023-01-06T13:21:39.738Z,49.79
2023-01-06T13:26:41.776Z,49.79
2023-01-06T13:32:08.488Z,49.64
2023-01-06T13:37:21.106Z,49.59
2023-01-06T13:42:37.759Z,49.80
2023-01-06T13:47:40.504Z,49.59
2023-01-06T13:52:43.436Z,49.75
2023-01-06T13:57:45.677Z,49.54
2023-01-06T14:02:50.926Z,49.58
2023-01-06T14:08:00.105Z,49.27
2023-01-06T14:13:05.354Z,49.34
2023-01-06T14:18:07.529Z,49.54
2023-01-06T14:23:24.356Z,49.47
2023-01-06T14:28:36.188Z,50.21
2023-01-06T14:33:40.104Z,50.33
2023-01-06T14:38:55.679Z,49.83
2023-01-06T14:44:03.263Z,49.64
2023-01-06T14:49:07.565Z,49.67
2023-01-06T14:54:41.501Z,49.55
2023-01-06T14:59:43.261Z,49.40
2023-01-06T15:04:45.112Z,49.78
2023-01-06T15:09:51.522Z,49.94
2023-01-06T15:14:53.490Z,49.96
2023-01-06T15:19:55.290Z,50.05
2023-01-06T15:24:57.173Z,49.85
2023-01-06T15:29:59.106Z,49.94
2023-01-06T15:35:01.278Z,49.81
2023-01-06T15:40:05.747Z,50.31
2023-01-06T15:45:24.932Z,50.56
2023-01-06T15:50:32.228Z,50.01
2023-01-06T15:55:36.911Z,51.76
2023-01-06T16:01:08.892Z,52.25
2023-01-06T16:06:12.876Z,51.58
2023-01-06T16:11:18.123Z,53.04
2023-01-06T16:16:20.014Z,51.04
2023-01-06T16:21:28.692Z,53.35
2023-01-06T16:26:41.423Z,52.96
2023-01-06T16:31:43.447Z,53.28
2023-01-06T16:36:45.584Z,53.41
2023-01-06T16:41:59.692Z,52.80
2023-01-06T16:47:02.618Z,52.43
2023-01-06T16:52:04.489Z,51.41
2023-01-06T16:57:10.314Z,51.20
2023-01-06T17:02:17.878Z,50.80
2023-01-06T17:07:19.711Z,51.30
2023-01-06T17:12:39.854Z,50.85
2023-01-06T17:17:42.033Z,50.71
2023-01-06T17:22:43.941Z,50.46
2023-01-06T17:27:48.337Z,50.42
2023-01-06T17:32:51.429Z,50.18
2023-01-06T17:37:54.344Z,50.07
2023-01-06T17:43:08.711Z,49.96
2023-01-06T17:48:12.065Z,49.93
2023-01-06T17:53:48.054Z,50.17
2023-01-06T17:58:50.419Z,50.34
2023-01-06T18:03:54.948Z,49.70
2023-01-06T18:09:11.477Z,49.84
2023-01-06T18:14:30.076Z,49.79
2023-01-06T18:19:40.787Z,49.75
2023-01-06T18:24:43.778Z,50.18
2023-01-06T18:29:46.022Z,49.66
2023-01-06T18:34:50.199Z,49.83
2023-01-06T18:39:55.984Z,49.37
2023-01-06T18:45:20.808Z,49.72
2023-01-06T18:50:44.527Z,49.65
2023-01-06T18:55:47.675Z,49.67
2023-01-06T19:01:01.500Z,49.15
2023-01-06T19:06:27.926Z,49.60
2023-01-06T19:11:32.936Z,49.84
2023-01-06T19:16:37.925Z,49.32
2023-01-06T19:21:39.930Z,49.33
2023-01-06T19:26:42.341Z,49.71
2023-01-06T19:31:53.904Z,49.60
2023-01-06T19:37:00.041Z,49.77
2023-01-06T19:42:08.800Z,49.85
2023-01-06T19:47:18.866Z,49.59
2023-01-06T19:52:34.499Z,49.43
2023-01-06T19:57:40.148Z,49.23
2023-01-06T20:02:45.423Z,49.44
2023-01-06T20:07:47.352Z,48.90
2023-01-06T20:12:49.634Z,49.33
2023-01-06T20:17:51.616Z,49.19
2023-01-06T20:22:53.776Z,48.90
2023-01-06T20:27:55.903Z,48.99
2023-01-06T20:32:58.048Z,49.43
2023-01-06T20:38:01.071Z,49.05
2023-01-06T20:43:03.126Z,48.80
2023-01-06T20:48:05.344Z,49.08
2023-01-06T20:53:07.230Z,49.03
2023-01-06T20:58:09.363Z,49.04
2023-01-06T21:03:11.561Z,49.10
2023-01-06T21:08:13.600Z,49.09
2023-01-06T21:13:16.164Z,49.01
2023-01-06T21:18:18.238Z,48.85
2023-01-06T21:23:20.205Z,49.00
2023-01-06T21:28:22.668Z,48.89
2023-01-06T21:33:24.943Z,48.88
2023-01-06T21:38:27.040Z,49.07
2023-01-06T21:43:28.912Z,49.08
2023-01-06T21:48:30.865Z,48.92
2023-01-06T21:53:32.738Z,48.95
2023-01-06T21:58:35.529Z,49.02
2023-01-06T22:03:37.711Z,49.02
2023-01-06T22:08:39.629Z,49.17
2023-01-06T22:13:41.800Z,49.36
2023-01-06T22:18:43.707Z,49.05
2023-01-06T22:23:45.893Z,49.17
2023-01-06T22:28:47.653Z,48.99
2023-01-06T22:33:49.530Z,49.01
2023-01-06T22:38:52.469Z,49.93
2023-01-06T22:43:54.298Z,51.05
2023-01-06T22:48:56.312Z,52.24
2023-01-06T22:53:59.370Z,53.33
2023-01-06T22:59:01.437Z,53.33
2023-01-06T23:04:03.877Z,53.01
2023-01-06T23:09:05.945Z,52.35
2023-01-06T23:14:09.525Z,52.08
2023-01-06T23:19:13.892Z,51.93
2023-01-06T23:24:15.855Z,51.12
2023-01-06T23:29:17.831Z,51.24
2023-01-06T23:34:20.028Z,51.26
2023-01-06T23:39:22.234Z,51.38
2023-01-06T23:44:24.074Z,51.00
2023-01-06T23:49:26.100Z,50.80
2023-01-06T23:54:28.260Z,50.44
2023-01-06T23:59:30.333Z,50.15
